Terminal Aerodrome Forecast
Issued by NWS

Current Version | Previous Version | Text Only | Print | Product List | Glossary Off
Versions: 1 2 3 4 5 6 7 8 9 10 11 12 13 14 15 16 17 18 19

000
FTUS42 KILM 300520
TAFCRE
TAF
KCRE 300520Z 3006/0106 20010KT P6SM SCT009 BKN050
     FM300800 20008KT 3SM BR SCT002 BKN025
     FM301100 21011KT P6SM VCSH SCT025 BKN050
     FM301700 20014G24KT P6SM VCTS SCT030CB BKN050
     FM302100 21012G22KT P6SM SCT020 BKN250
      AMD NOT SKED=

USA.gov is the U.S. government's official web portal to all federal, state and local government web resources and services.